sensor_id;sensor_type;location;lat;lon;timestamp;temperature;humidity
18974;DHT22;9621;48.690;9.466;2024-02-23T00:01:45;4.70;99.90
18974;DHT22;9621;48.690;9.466;2024-02-23T00:04:12;4.70;99.90
18974;DHT22;9621;48.690;9.466;2024-02-23T00:06:40;4.60;99.90
18974;DHT22;9621;48.690;9.466;2024-02-23T00:09:07;4.60;99.90
18974;DHT22;9621;48.690;9.466;2024-02-23T00:11:34;4.50;99.90
18974;DHT22;9621;48.690;9.466;2024-02-23T00:14:05;4.50;99.90
18974;DHT22;9621;48.690;9.466;2024-02-23T00:16:37;4.40;99.90
18974;DHT22;9621;48.690;9.466;2024-02-23T00:19:04;4.40;99.90
18974;DHT22;9621;48.690;9.466;2024-02-23T00:21:31;4.40;99.90
18974;DHT22;9621;48.690;9.466;2024-02-23T00:23:59;4.40;99.90
18974;DHT22;9621;48.690;9.466;2024-02-23T00:26:26;4.40;99.90
18974;DHT22;9621;48.690;9.466;2024-02-23T00:28:54;4.40;99.90
18974;DHT22;9621;48.690;9.466;2024-02-23T00:31:21;4.40;99.90
18974;DHT22;9621;48.690;9.466;2024-02-23T00:33:48;4.40;99.90
18974;DHT22;9621;48.690;9.466;2024-02-23T00:36:15;4.40;99.90
18974;DHT22;9621;48.690;9.466;2024-02-23T00:38:42;4.40;99.90
18974;DHT22;9621;48.690;9.466;2024-02-23T00:41:11;4.40;99.90
18974;DHT22;9621;48.690;9.466;2024-02-23T00:43:38;4.40;99.90
18974;DHT22;9621;48.690;9.466;2024-02-23T00:46:05;4.40;99.90
18974;DHT22;9621;48.690;9.466;2024-02-23T00:48:32;4.40;99.90
18974;DHT22;9621;48.690;9.466;2024-02-23T00:51:00;4.40;99.90
18974;DHT22;9621;48.690;9.466;2024-02-23T00:53:26;4.40;99.90
18974;DHT22;9621;48.690;9.466;2024-02-23T00:55:53;4.40;99.90
18974;DHT22;9621;48.690;9.466;2024-02-23T00:58:22;4.40;99.90
18974;DHT22;9621;48.690;9.466;2024-02-23T01:00:49;4.50;99.90
18974;DHT22;9621;48.690;9.466;2024-02-23T01:03:16;4.50;99.90
18974;DHT22;9621;48.690;9.466;2024-02-23T01:05:43;4.50;99.90
18974;DHT22;9621;48.690;9.466;2024-02-23T01:08:09;4.50;99.90
18974;DHT22;9621;48.690;9.466;2024-02-23T01:10:36;4.50;99.90
18974;DHT22;9621;48.690;9.466;2024-02-23T01:13:03;4.50;99.90
18974;DHT22;9621;48.690;9.466;2024-02-23T01:15:32;4.50;99.90
18974;DHT22;9621;48.690;9.466;2024-02-23T01:18:00;4.50;99.90
18974;DHT22;9621;48.690;9.466;2024-02-23T01:20:28;4.50;99.90
18974;DHT22;9621;48.690;9.466;2024-02-23T01:22:55;4.50;99.90
18974;DHT22;9621;48.690;9.466;2024-02-23T01:25:21;4.40;99.90
18974;DHT22;9621;48.690;9.466;2024-02-23T01:27:49;4.40;99.90
18974;DHT22;9621;48.690;9.466;2024-02-23T01:30:15;4.40;99.90
18974;DHT22;9621;48.690;9.466;2024-02-23T01:32:44;4.30;99.90
18974;DHT22;9621;48.690;9.466;2024-02-23T01:35:11;4.30;99.90
18974;DHT22;9621;48.690;9.466;2024-02-23T01:37:38;4.20;99.90
18974;DHT22;9621;48.690;9.466;2024-02-23T01:40:06;4.20;99.90
18974;DHT22;9621;48.690;9.466;2024-02-23T01:42:33;4.20;99.90
18974;DHT22;9621;48.690;9.466;2024-02-23T01:45:00;4.10;99.90
18974;DHT22;9621;48.690;9.466;2024-02-23T01:47:29;4.00;99.90
18974;DHT22;9621;48.690;9.466;2024-02-23T01:49:58;4.00;99.90
18974;DHT22;9621;48.690;9.466;2024-02-23T01:52:26;3.90;99.90
18974;DHT22;9621;48.690;9.466;2024-02-23T01:54:53;3.90;99.90
18974;DHT22;9621;48.690;9.466;2024-02-23T01:57:21;3.90;99.90
18974;DHT22;9621;48.690;9.466;2024-02-23T01:59:49;4.50;99.90
18974;DHT22;9621;48.690;9.466;2024-02-23T02:02:16;3.90;99.90
18974;DHT22;9621;48.690;9.466;2024-02-23T02:04:43;3.80;99.90
18974;DHT22;9621;48.690;9.466;2024-02-23T02:07:12;3.70;99.90
18974;DHT22;9621;48.690;9.466;2024-02-23T02:09:39;3.70;99.90
18974;DHT22;9621;48.690;9.466;2024-02-23T02:12:06;3.70;99.90
18974;DHT22;9621;48.690;9.466;2024-02-23T02:14:33;3.70;99.90
18974;DHT22;9621;48.690;9.466;2024-02-23T02:17:00;4.00;99.90
18974;DHT22;9621;48.690;9.466;2024-02-23T02:19:27;3.80;99.90
18974;DHT22;9621;48.690;9.466;2024-02-23T02:21:54;3.60;99.90
18974;DHT22;9621;48.690;9.466;2024-02-23T02:24:22;3.60;99.90
18974;DHT22;9621;48.690;9.466;2024-02-23T02:26:49;3.60;99.90
18974;DHT22;9621;48.690;9.466;2024-02-23T02:29:16;3.60;99.90
18974;DHT22;9621;48.690;9.466;2024-02-23T02:31:43;3.50;99.90
18974;DHT22;9621;48.690;9.466;2024-02-23T02:34:10;3.70;99.90
18974;DHT22;9621;48.690;9.466;2024-02-23T02:36:38;3.50;99.90
18974;DHT22;9621;48.690;9.466;2024-02-23T02:39:05;3.50;99.90
18974;DHT22;9621;48.690;9.466;2024-02-23T02:41:35;3.40;99.90
18974;DHT22;9621;48.690;9.466;2024-02-23T02:44:02;3.50;99.90
18974;DHT22;9621;48.690;9.466;2024-02-23T02:46:29;3.50;99.90
18974;DHT22;9621;48.690;9.466;2024-02-23T02:48:55;3.50;99.90
18974;DHT22;9621;48.690;9.466;2024-02-23T02:51:22;3.50;99.90
18974;DHT22;9621;48.690;9.466;2024-02-23T02:53:49;3.50;99.90
18974;DHT22;9621;48.690;9.466;2024-02-23T02:56:16;3.50;99.90
18974;DHT22;9621;48.690;9.466;2024-02-23T02:58:45;3.50;99.90
18974;DHT22;9621;48.690;9.466;2024-02-23T03:01:12;3.50;99.90
18974;DHT22;9621;48.690;9.466;2024-02-23T03:03:39;3.50;99.90
18974;DHT22;9621;48.690;9.466;2024-02-23T03:06:06;3.50;99.90
18974;DHT22;9621;48.690;9.466;2024-02-23T03:08:33;3.50;99.90
18974;DHT22;9621;48.690;9.466;2024-02-23T03:11:00;3.60;99.90
18974;DHT22;9621;48.690;9.466;2024-02-23T03:13:27;3.60;99.90
18974;DHT22;9621;48.690;9.466;2024-02-23T03:15:56;3.60;99.90
18974;DHT22;9621;48.690;9.466;2024-02-23T03:18:23;3.60;99.90
18974;DHT22;9621;48.690;9.466;2024-02-23T03:20:49;3.50;99.90
18974;DHT22;9621;48.690;9.466;2024-02-23T03:23:16;3.60;99.90
18974;DHT22;9621;48.690;9.466;2024-02-23T03:25:43;3.60;99.90
18974;DHT22;9621;48.690;9.466;2024-02-23T03:28:10;3.70;99.90
18974;DHT22;9621;48.690;9.466;2024-02-23T03:30:37;3.50;99.90
18974;DHT22;9621;48.690;9.466;2024-02-23T03:33:06;3.60;99.90
18974;DHT22;9621;48.690;9.466;2024-02-23T03:35:32;3.60;99.90
18974;DHT22;9621;48.690;9.466;2024-02-23T03:37:59;3.50;99.90
18974;DHT22;9621;48.690;9.466;2024-02-23T03:40:27;3.50;99.90
18974;DHT22;9621;48.690;9.466;2024-02-23T03:42:54;3.50;99.90
18974;DHT22;9621;48.690;9.466;2024-02-23T03:45:21;3.50;99.90
18974;DHT22;9621;48.690;9.466;2024-02-23T03:47:48;3.50;99.90
18974;DHT22;9621;48.690;9.466;2024-02-23T03:50:16;3.50;99.90
18974;DHT22;9621;48.690;9.466;2024-02-23T03:52:43;3.50;99.90
18974;DHT22;9621;48.690;9.466;2024-02-23T03:55:10;3.50;99.90
18974;DHT22;9621;48.690;9.466;2024-02-23T03:57:37;3.50;99.90
18974;DHT22;9621;48.690;9.466;2024-02-23T04:00:05;3.50;99.90
18974;DHT22;9621;48.690;9.466;2024-02-23T04:02:34;3.40;99.90
18974;DHT22;9621;48.690;9.466;2024-02-23T04:05:01;3.50;99.90
18974;DHT22;9621;48.690;9.466;2024-02-23T04:07:30;3.50;99.90
18974;DHT22;9621;48.690;9.466;2024-02-23T04:09:57;3.40;99.90
18974;DHT22;9621;48.690;9.466;2024-02-23T04:12:24;3.40;99.90
18974;DHT22;9621;48.690;9.466;2024-02-23T04:14:51;3.50;99.90
18974;DHT22;9621;48.690;9.466;2024-02-23T04:17:18;3.40;99.90
18974;DHT22;9621;48.690;9.466;2024-02-23T04:19:45;3.30;99.90
18974;DHT22;9621;48.690;9.466;2024-02-23T04:22:12;3.30;99.90
18974;DHT22;9621;48.690;9.466;2024-02-23T04:24:41;3.30;99.90
18974;DHT22;9621;48.690;9.466;2024-02-23T04:27:08;3.30;99.90
18974;DHT22;9621;48.690;9.466;2024-02-23T04:29:35;3.30;99.90
18974;DHT22;9621;48.690;9.466;2024-02-23T04:32:02;3.40;99.90
18974;DHT22;9621;48.690;9.466;2024-02-23T04:34:30;3.30;99.90
18974;DHT22;9621;48.690;9.466;2024-02-23T04:36:57;3.30;99.90
18974;DHT22;9621;48.690;9.466;2024-02-23T04:39:24;3.20;99.90
18974;DHT22;9621;48.690;9.466;2024-02-23T04:41:52;3.30;99.90
18974;DHT22;9621;48.690;9.466;2024-02-23T04:44:19;3.20;99.90
18974;DHT22;9621;48.690;9.466;2024-02-23T04:46:46;3.20;99.90
18974;DHT22;9621;48.690;9.466;2024-02-23T04:49:13;3.20;99.90
18974;DHT22;9621;48.690;9.466;2024-02-23T04:51:40;3.10;99.90
18974;DHT22;9621;48.690;9.466;2024-02-23T04:54:07;3.10;99.90
18974;DHT22;9621;48.690;9.466;2024-02-23T04:56:34;3.10;99.90
18974;DHT22;9621;48.690;9.466;2024-02-23T04:59:03;3.10;99.90
18974;DHT22;9621;48.690;9.466;2024-02-23T05:01:35;3.10;99.90
18974;DHT22;9621;48.690;9.466;2024-02-23T05:04:02;3.00;99.90
18974;DHT22;9621;48.690;9.466;2024-02-23T05:06:30;3.00;99.90
18974;DHT22;9621;48.690;9.466;2024-02-23T05:08:56;3.00;99.90
18974;DHT22;9621;48.690;9.466;2024-02-23T05:11:23;3.30;99.90
18974;DHT22;9621;48.690;9.466;2024-02-23T05:13:50;2.90;99.90
18974;DHT22;9621;48.690;9.466;2024-02-23T05:16:19;2.90;99.90
18974;DHT22;9621;48.690;9.466;2024-02-23T05:18:45;2.80;99.90
18974;DHT22;9621;48.690;9.466;2024-02-23T05:21:14;2.80;99.90
18974;DHT22;9621;48.690;9.466;2024-02-23T05:23:41;2.70;99.90
18974;DHT22;9621;48.690;9.466;2024-02-23T05:26:08;2.60;99.90
18974;DHT22;9621;48.690;9.466;2024-02-23T05:28:36;2.60;99.90
18974;DHT22;9621;48.690;9.466;2024-02-23T05:31:03;2.60;99.90
18974;DHT22;9621;48.690;9.466;2024-02-23T05:33:32;2.50;99.90
18974;DHT22;9621;48.690;9.466;2024-02-23T05:35:58;2.50;99.90
18974;DHT22;9621;48.690;9.466;2024-02-23T05:38:25;2.50;99.90
18974;DHT22;9621;48.690;9.466;2024-02-23T05:40:52;2.60;99.90
18974;DHT22;9621;48.690;9.466;2024-02-23T05:43:19;2.50;99.90
18974;DHT22;9621;48.690;9.466;2024-02-23T05:45:46;2.50;99.90
18974;DHT22;9621;48.690;9.466;2024-02-23T05:48:13;2.40;99.90
18974;DHT22;9621;48.690;9.466;2024-02-23T05:50:41;2.40;99.90
18974;DHT22;9621;48.690;9.466;2024-02-23T05:53:08;2.50;99.90
18974;DHT22;9621;48.690;9.466;2024-02-23T05:55:35;2.30;99.90
18974;DHT22;9621;48.690;9.466;2024-02-23T05:58:02;2.30;99.90
18974;DHT22;9621;48.690;9.466;2024-02-23T06:00:30;2.20;99.90
18974;DHT22;9621;48.690;9.466;2024-02-23T06:02:57;2.10;99.90
18974;DHT22;9621;48.690;9.466;2024-02-23T06:05:24;2.10;99.90
18974;DHT22;9621;48.690;9.466;2024-02-23T06:07:52;2.10;99.90
18974;DHT22;9621;48.690;9.466;2024-02-23T06:10:20;2.00;99.90
18974;DHT22;9621;48.690;9.466;2024-02-23T06:12:47;2.00;99.90
18974;DHT22;9621;48.690;9.466;2024-02-23T06:15:14;1.90;99.90
18974;DHT22;9621;48.690;9.466;2024-02-23T06:17:41;1.90;99.90
18974;DHT22;9621;48.690;9.466;2024-02-23T06:20:09;1.80;99.90
18974;DHT22;9621;48.690;9.466;2024-02-23T06:22:36;1.80;99.90
18974;DHT22;9621;48.690;9.466;2024-02-23T06:25:05;1.80;99.90
18974;DHT22;9621;48.690;9.466;2024-02-23T06:27:32;1.80;99.90
18974;DHT22;9621;48.690;9.466;2024-02-23T06:29:59;1.70;99.90
18974;DHT22;9621;48.690;9.466;2024-02-23T06:32:26;1.70;99.90
18974;DHT22;9621;48.690;9.466;2024-02-23T06:34:53;1.70;99.90
18974;DHT22;9621;48.690;9.466;2024-02-23T06:37:20;1.60;99.90
18974;DHT22;9621;48.690;9.466;2024-02-23T06:39:47;1.60;99.90
18974;DHT22;9621;48.690;9.466;2024-02-23T06:42:21;1.60;99.90
18974;DHT22;9621;48.690;9.466;2024-02-23T06:44:48;1.60;99.90
18974;DHT22;9621;48.690;9.466;2024-02-23T06:47:15;1.60;99.90
18974;DHT22;9621;48.690;9.466;2024-02-23T06:49:42;1.60;99.90
18974;DHT22;9621;48.690;9.466;2024-02-23T06:52:10;1.60;99.90
18974;DHT22;9621;48.690;9.466;2024-02-23T06:54:37;1.60;99.90
18974;DHT22;9621;48.690;9.466;2024-02-23T06:57:04;1.60;99.90
18974;DHT22;9621;48.690;9.466;2024-02-23T06:59:33;1.60;99.90
18974;DHT22;9621;48.690;9.466;2024-02-23T07:02:00;1.60;99.90
18974;DHT22;9621;48.690;9.466;2024-02-23T07:04:27;1.70;99.90
18974;DHT22;9621;48.690;9.466;2024-02-23T07:06:55;1.60;99.90
18974;DHT22;9621;48.690;9.466;2024-02-23T07:09:22;2.20;99.90
18974;DHT22;9621;48.690;9.466;2024-02-23T07:11:49;1.70;99.90
18974;DHT22;9621;48.690;9.466;2024-02-23T07:14:16;1.70;99.90
18974;DHT22;9621;48.690;9.466;2024-02-23T07:16:45;1.70;99.90
18974;DHT22;9621;48.690;9.466;2024-02-23T07:19:12;1.70;99.90
18974;DHT22;9621;48.690;9.466;2024-02-23T07:21:39;1.70;99.90
18974;DHT22;9621;48.690;9.466;2024-02-23T07:24:07;1.70;99.90
18974;DHT22;9621;48.690;9.466;2024-02-23T07:26:34;1.70;99.90
18974;DHT22;9621;48.690;9.466;2024-02-23T07:29:01;1.70;99.90
18974;DHT22;9621;48.690;9.466;2024-02-23T07:31:28;1.80;99.90
18974;DHT22;9621;48.690;9.466;2024-02-23T07:33:56;1.80;99.90
18974;DHT22;9621;48.690;9.466;2024-02-23T07:36:23;1.80;99.90
18974;DHT22;9621;48.690;9.466;2024-02-23T07:38:50;1.80;99.90
18974;DHT22;9621;48.690;9.466;2024-02-23T07:41:17;1.90;99.90
18974;DHT22;9621;48.690;9.466;2024-02-23T07:43:44;2.00;99.90
18974;DHT22;9621;48.690;9.466;2024-02-23T07:46:12;2.10;99.90
18974;DHT22;9621;48.690;9.466;2024-02-23T07:48:39;2.20;99.90
18974;DHT22;9621;48.690;9.466;2024-02-23T07:51:08;2.30;99.90
18974;DHT22;9621;48.690;9.466;2024-02-23T07:53:34;2.50;99.90
18974;DHT22;9621;48.690;9.466;2024-02-23T07:56:01;2.60;99.90
18974;DHT22;9621;48.690;9.466;2024-02-23T07:58:29;2.80;99.90
18974;DHT22;9621;48.690;9.466;2024-02-23T08:00:56;2.90;99.90
18974;DHT22;9621;48.690;9.466;2024-02-23T08:03:23;3.10;99.90
18974;DHT22;9621;48.690;9.466;2024-02-23T08:05:51;3.20;99.90
18974;DHT22;9621;48.690;9.466;2024-02-23T08:08:20;3.30;99.90
18974;DHT22;9621;48.690;9.466;2024-02-23T08:10:48;3.40;99.90
18974;DHT22;9621;48.690;9.466;2024-02-23T08:13:15;3.50;99.90
18974;DHT22;9621;48.690;9.466;2024-02-23T08:15:44;3.60;99.90
18974;DHT22;9621;48.690;9.466;2024-02-23T08:18:11;3.60;99.90
18974;DHT22;9621;48.690;9.466;2024-02-23T08:20:38;3.70;99.90
18974;DHT22;9621;48.690;9.466;2024-02-23T08:23:05;3.80;99.90
18974;DHT22;9621;48.690;9.466;2024-02-23T08:25:33;3.90;99.90
18974;DHT22;9621;48.690;9.466;2024-02-23T08:28:00;3.90;99.90
18974;DHT22;9621;48.690;9.466;2024-02-23T08:30:27;4.00;99.90
18974;DHT22;9621;48.690;9.466;2024-02-23T08:32:55;4.00;99.90
18974;DHT22;9621;48.690;9.466;2024-02-23T08:35:21;4.10;99.90
18974;DHT22;9621;48.690;9.466;2024-02-23T08:37:49;4.10;99.90
18974;DHT22;9621;48.690;9.466;2024-02-23T08:40:16;4.20;99.90
18974;DHT22;9621;48.690;9.466;2024-02-23T08:42:47;4.20;99.90
18974;DHT22;9621;48.690;9.466;2024-02-23T08:45:15;4.30;99.90
18974;DHT22;9621;48.690;9.466;2024-02-23T08:47:42;4.30;99.90
18974;DHT22;9621;48.690;9.466;2024-02-23T08:50:10;4.50;99.90
18974;DHT22;9621;48.690;9.466;2024-02-23T08:52:37;4.40;99.90
18974;DHT22;9621;48.690;9.466;2024-02-23T08:55:04;4.50;99.90
18974;DHT22;9621;48.690;9.466;2024-02-23T08:57:31;4.60;99.90
18974;DHT22;9621;48.690;9.466;2024-02-23T08:59:59;4.60;99.90
18974;DHT22;9621;48.690;9.466;2024-02-23T09:02:26;4.70;99.90
18974;DHT22;9621;48.690;9.466;2024-02-23T09:04:53;4.70;99.90
18974;DHT22;9621;48.690;9.466;2024-02-23T09:07:20;4.80;99.90
18974;DHT22;9621;48.690;9.466;2024-02-23T09:09:47;4.90;99.90
18974;DHT22;9621;48.690;9.466;2024-02-23T09:12:15;4.90;99.90
18974;DHT22;9621;48.690;9.466;2024-02-23T09:14:42;5.00;99.90
18974;DHT22;9621;48.690;9.466;2024-02-23T09:17:11;5.10;99.90
18974;DHT22;9621;48.690;9.466;2024-02-23T09:19:38;5.30;99.90
18974;DHT22;9621;48.690;9.466;2024-02-23T09:22:05;5.20;99.90
18974;DHT22;9621;48.690;9.466;2024-02-23T09:24:32;5.40;99.90
18974;DHT22;9621;48.690;9.466;2024-02-23T09:26:59;5.30;99.90
18974;DHT22;9621;48.690;9.466;2024-02-23T09:29:27;5.40;99.90
18974;DHT22;9621;48.690;9.466;2024-02-23T09:31:54;5.50;99.90
18974;DHT22;9621;48.690;9.466;2024-02-23T09:34:23;5.50;99.90
18974;DHT22;9621;48.690;9.466;2024-02-23T09:36:50;5.60;99.90
18974;DHT22;9621;48.690;9.466;2024-02-23T09:39:17;5.80;99.90
18974;DHT22;9621;48.690;9.466;2024-02-23T09:41:44;5.90;99.90
18974;DHT22;9621;48.690;9.466;2024-02-23T09:44:13;6.10;99.90
18974;DHT22;9621;48.690;9.466;2024-02-23T09:46:43;6.10;99.90
18974;DHT22;9621;48.690;9.466;2024-02-23T09:49:11;6.20;99.90
18974;DHT22;9621;48.690;9.466;2024-02-23T09:51:40;6.30;99.90
18974;DHT22;9621;48.690;9.466;2024-02-23T09:54:08;6.40;99.90
18974;DHT22;9621;48.690;9.466;2024-02-23T09:56:34;6.50;99.90
18974;DHT22;9621;48.690;9.466;2024-02-23T09:59:03;6.60;99.90
18974;DHT22;9621;48.690;9.466;2024-02-23T10:01:31;6.60;99.90
18974;DHT22;9621;48.690;9.466;2024-02-23T10:04:00;6.60;99.90
18974;DHT22;9621;48.690;9.466;2024-02-23T10:06:28;6.60;99.90
18974;DHT22;9621;48.690;9.466;2024-02-23T10:08:57;6.70;99.90
18974;DHT22;9621;48.690;9.466;2024-02-23T10:11:24;6.70;99.90
18974;DHT22;9621;48.690;9.466;2024-02-23T10:13:52;6.80;99.90
18974;DHT22;9621;48.690;9.466;2024-02-23T10:16:19;6.80;99.90
18974;DHT22;9621;48.690;9.466;2024-02-23T10:18:46;6.80;99.90
18974;DHT22;9621;48.690;9.466;2024-02-23T10:21:14;7.00;99.90
18974;DHT22;9621;48.690;9.466;2024-02-23T10:23:41;7.00;99.90
18974;DHT22;9621;48.690;9.466;2024-02-23T10:26:10;7.00;99.90
18974;DHT22;9621;48.690;9.466;2024-02-23T10:28:37;7.10;99.90
18974;DHT22;9621;48.690;9.466;2024-02-23T10:31:05;7.10;99.90
18974;DHT22;9621;48.690;9.466;2024-02-23T10:33:32;7.10;99.90
18974;DHT22;9621;48.690;9.466;2024-02-23T10:36:00;7.10;99.90
18974;DHT22;9621;48.690;9.466;2024-02-23T10:38:29;7.10;99.90
18974;DHT22;9621;48.690;9.466;2024-02-23T10:40:59;7.20;99.90
18974;DHT22;9621;48.690;9.466;2024-02-23T10:43:32;7.30;99.90
18974;DHT22;9621;48.690;9.466;2024-02-23T10:46:00;7.30;99.90
18974;DHT22;9621;48.690;9.466;2024-02-23T10:48:28;7.40;99.90
18974;DHT22;9621;48.690;9.466;2024-02-23T10:50:56;7.40;99.90
18974;DHT22;9621;48.690;9.466;2024-02-23T10:53:24;7.40;99.90
18974;DHT22;9621;48.690;9.466;2024-02-23T10:55:53;7.40;99.90
18974;DHT22;9621;48.690;9.466;2024-02-23T10:58:22;7.30;99.90
18974;DHT22;9621;48.690;9.466;2024-02-23T11:00:51;7.30;99.90
18974;DHT22;9621;48.690;9.466;2024-02-23T11:03:19;7.30;99.90
18974;DHT22;9621;48.690;9.466;2024-02-23T11:05:47;7.30;99.90
18974;DHT22;9621;48.690;9.466;2024-02-23T11:08:17;7.20;99.90
18974;DHT22;9621;48.690;9.466;2024-02-23T11:10:49;7.30;99.90
18974;DHT22;9621;48.690;9.466;2024-02-23T11:13:16;7.40;99.90
18974;DHT22;9621;48.690;9.466;2024-02-23T11:15:44;7.40;99.90
18974;DHT22;9621;48.690;9.466;2024-02-23T11:18:27;7.40;99.90
18974;DHT22;9621;48.690;9.466;2024-02-23T11:20:54;7.40;99.90
18974;DHT22;9621;48.690;9.466;2024-02-23T11:23:22;7.40;99.90
18974;DHT22;9621;48.690;9.466;2024-02-23T11:26:04;7.40;99.90
18974;DHT22;9621;48.690;9.466;2024-02-23T11:28:32;7.40;99.90
18974;DHT22;9621;48.690;9.466;2024-02-23T11:30:59;7.40;99.90
18974;DHT22;9621;48.690;9.466;2024-02-23T11:33:29;7.30;99.90
18974;DHT22;9621;48.690;9.466;2024-02-23T11:36:08;7.30;99.90
18974;DHT22;9621;48.690;9.466;2024-02-23T11:38:35;7.30;99.90
18974;DHT22;9621;48.690;9.466;2024-02-23T11:41:02;7.30;99.90
18974;DHT22;9621;48.690;9.466;2024-02-23T11:43:29;7.30;99.90
18974;DHT22;9621;48.690;9.466;2024-02-23T11:45:56;7.40;99.90
18974;DHT22;9621;48.690;9.466;2024-02-23T11:48:23;7.30;99.90
18974;DHT22;9621;48.690;9.466;2024-02-23T11:50:51;7.30;99.90
18974;DHT22;9621;48.690;9.466;2024-02-23T11:53:18;7.30;99.90
18974;DHT22;9621;48.690;9.466;2024-02-23T11:55:48;7.40;99.90
18974;DHT22;9621;48.690;9.466;2024-02-23T11:58:15;7.40;99.90
18974;DHT22;9621;48.690;9.466;2024-02-23T12:00:43;7.40;99.90
18974;DHT22;9621;48.690;9.466;2024-02-23T12:03:11;7.50;99.90
18974;DHT22;9621;48.690;9.466;2024-02-23T12:05:38;7.50;99.90
18974;DHT22;9621;48.690;9.466;2024-02-23T12:08:06;7.50;99.90
18974;DHT22;9621;48.690;9.466;2024-02-23T12:10:34;7.60;99.90
18974;DHT22;9621;48.690;9.466;2024-02-23T12:13:02;7.60;99.90
18974;DHT22;9621;48.690;9.466;2024-02-23T12:15:29;7.70;99.90
18974;DHT22;9621;48.690;9.466;2024-02-23T12:17:58;7.70;99.90
18974;DHT22;9621;48.690;9.466;2024-02-23T12:20:25;7.80;99.90
18974;DHT22;9621;48.690;9.466;2024-02-23T12:22:54;7.80;99.90
18974;DHT22;9621;48.690;9.466;2024-02-23T12:25:23;7.90;99.90
18974;DHT22;9621;48.690;9.466;2024-02-23T12:27:54;7.90;99.90
18974;DHT22;9621;48.690;9.466;2024-02-23T12:30:21;7.90;99.90
18974;DHT22;9621;48.690;9.466;2024-02-23T12:32:48;7.90;99.90
18974;DHT22;9621;48.690;9.466;2024-02-23T12:35:15;7.90;99.90
18974;DHT22;9621;48.690;9.466;2024-02-23T12:37:43;8.00;99.90
18974;DHT22;9621;48.690;9.466;2024-02-23T12:40:11;8.00;99.90
18974;DHT22;9621;48.690;9.466;2024-02-23T12:42:40;7.90;99.90
18974;DHT22;9621;48.690;9.466;2024-02-23T12:45:08;8.00;99.90
18974;DHT22;9621;48.690;9.466;2024-02-23T12:47:35;8.00;99.90
18974;DHT22;9621;48.690;9.466;2024-02-23T12:50:02;8.00;99.90
18974;DHT22;9621;48.690;9.466;2024-02-23T12:52:29;8.10;99.90
18974;DHT22;9621;48.690;9.466;2024-02-23T12:54:56;8.10;99.90
18974;DHT22;9621;48.690;9.466;2024-02-23T12:57:24;8.10;99.90
18974;DHT22;9621;48.690;9.466;2024-02-23T12:59:52;8.10;99.90
18974;DHT22;9621;48.690;9.466;2024-02-23T13:02:20;8.10;99.90
18974;DHT22;9621;48.690;9.466;2024-02-23T13:04:47;8.30;99.90
18974;DHT22;9621;48.690;9.466;2024-02-23T13:07:15;8.20;99.90
18974;DHT22;9621;48.690;9.466;2024-02-23T13:09:42;8.20;99.90
18974;DHT22;9621;48.690;9.466;2024-02-23T13:12:09;8.30;99.90
18974;DHT22;9621;48.690;9.466;2024-02-23T13:14:36;8.30;99.90
18974;DHT22;9621;48.690;9.466;2024-02-23T13:17:04;8.30;99.90
18974;DHT22;9621;48.690;9.466;2024-02-23T13:19:31;8.30;99.90
18974;DHT22;9621;48.690;9.466;2024-02-23T13:21:58;8.30;99.90
18974;DHT22;9621;48.690;9.466;2024-02-23T13:24:26;8.30;99.90
18974;DHT22;9621;48.690;9.466;2024-02-23T13:26:53;8.30;99.90
18974;DHT22;9621;48.690;9.466;2024-02-23T13:29:20;8.40;99.90
18974;DHT22;9621;48.690;9.466;2024-02-23T13:31:47;8.50;99.90
18974;DHT22;9621;48.690;9.466;2024-02-23T13:34:16;8.50;99.90
18974;DHT22;9621;48.690;9.466;2024-02-23T13:36:43;8.60;99.90
18974;DHT22;9621;48.690;9.466;2024-02-23T13:39:10;8.70;99.90
18974;DHT22;9621;48.690;9.466;2024-02-23T13:41:37;8.70;99.90
18974;DHT22;9621;48.690;9.466;2024-02-23T13:44:04;8.70;99.90
18974;DHT22;9621;48.690;9.466;2024-02-23T13:46:31;8.70;99.90
18974;DHT22;9621;48.690;9.466;2024-02-23T13:49:05;8.70;99.90
18974;DHT22;9621;48.690;9.466;2024-02-23T13:51:34;8.70;99.90
18974;DHT22;9621;48.690;9.466;2024-02-23T13:54:01;8.70;99.90
18974;DHT22;9621;48.690;9.466;2024-02-23T13:56:28;8.60;99.90
18974;DHT22;9621;48.690;9.466;2024-02-23T13:58:55;8.60;99.90
18974;DHT22;9621;48.690;9.466;2024-02-23T14:01:23;8.60;99.90
18974;DHT22;9621;48.690;9.466;2024-02-23T14:03:50;8.50;99.90
18974;DHT22;9621;48.690;9.466;2024-02-23T14:06:17;8.50;99.90
18974;DHT22;9621;48.690;9.466;2024-02-23T14:08:45;8.50;99.90
18974;DHT22;9621;48.690;9.466;2024-02-23T14:11:13;8.40;99.90
18974;DHT22;9621;48.690;9.466;2024-02-23T14:13:40;8.40;99.90
18974;DHT22;9621;48.690;9.466;2024-02-23T14:16:07;8.40;99.90
18974;DHT22;9621;48.690;9.466;2024-02-23T14:18:34;8.40;99.90
18974;DHT22;9621;48.690;9.466;2024-02-23T14:21:04;8.30;99.90
18974;DHT22;9621;48.690;9.466;2024-02-23T14:23:31;8.20;99.90
18974;DHT22;9621;48.690;9.466;2024-02-23T14:26:00;8.20;99.90
18974;DHT22;9621;48.690;9.466;2024-02-23T14:28:27;8.20;99.90
18974;DHT22;9621;48.690;9.466;2024-02-23T14:30:54;8.20;99.90
18974;DHT22;9621;48.690;9.466;2024-02-23T14:33:21;8.10;99.90
18974;DHT22;9621;48.690;9.466;2024-02-23T14:35:48;8.10;99.90
18974;DHT22;9621;48.690;9.466;2024-02-23T14:38:16;8.10;99.90
18974;DHT22;9621;48.690;9.466;2024-02-23T14:40:43;8.10;99.90
18974;DHT22;9621;48.690;9.466;2024-02-23T14:43:11;8.20;99.90
18974;DHT22;9621;48.690;9.466;2024-02-23T14:45:38;8.20;99.90
18974;DHT22;9621;48.690;9.466;2024-02-23T14:48:06;8.20;99.90
18974;DHT22;9621;48.690;9.466;2024-02-23T14:50:33;8.20;99.90
18974;DHT22;9621;48.690;9.466;2024-02-23T14:53:00;8.20;99.90
18974;DHT22;9621;48.690;9.466;2024-02-23T14:55:27;8.20;99.90
18974;DHT22;9621;48.690;9.466;2024-02-23T14:57:54;8.20;99.90
18974;DHT22;9621;48.690;9.466;2024-02-23T15:00:23;8.10;99.90
18974;DHT22;9621;48.690;9.466;2024-02-23T15:02:50;8.10;99.90
18974;DHT22;9621;48.690;9.466;2024-02-23T15:05:17;8.00;99.90
18974;DHT22;9621;48.690;9.466;2024-02-23T15:07:44;7.90;99.90
18974;DHT22;9621;48.690;9.466;2024-02-23T15:10:11;7.90;99.90
18974;DHT22;9621;48.690;9.466;2024-02-23T15:12:38;8.00;99.90
18974;DHT22;9621;48.690;9.466;2024-02-23T15:15:06;7.80;99.90
18974;DHT22;9621;48.690;9.466;2024-02-23T15:17:34;7.70;99.90
18974;DHT22;9621;48.690;9.466;2024-02-23T15:20:01;7.70;99.90
18974;DHT22;9621;48.690;9.466;2024-02-23T15:22:29;7.70;99.90
18974;DHT22;9621;48.690;9.466;2024-02-23T15:24:57;7.60;99.90
18974;DHT22;9621;48.690;9.466;2024-02-23T15:27:25;7.60;99.90
18974;DHT22;9621;48.690;9.466;2024-02-23T15:29:52;7.50;99.90
18974;DHT22;9621;48.690;9.466;2024-02-23T15:32:19;7.50;99.90
18974;DHT22;9621;48.690;9.466;2024-02-23T15:34:47;7.50;99.90
18974;DHT22;9621;48.690;9.466;2024-02-23T15:37:14;7.50;99.90
18974;DHT22;9621;48.690;9.466;2024-02-23T15:39:41;7.40;99.90
18974;DHT22;9621;48.690;9.466;2024-02-23T15:42:08;7.40;99.90
18974;DHT22;9621;48.690;9.466;2024-02-23T15:44:35;7.40;99.90
18974;DHT22;9621;48.690;9.466;2024-02-23T15:47:02;7.50;99.90
18974;DHT22;9621;48.690;9.466;2024-02-23T15:49:29;7.50;99.90
18974;DHT22;9621;48.690;9.466;2024-02-23T15:51:57;7.50;99.90
18974;DHT22;9621;48.690;9.466;2024-02-23T15:54:24;7.60;99.90
18974;DHT22;9621;48.690;9.466;2024-02-23T15:56:53;7.60;99.90
18974;DHT22;9621;48.690;9.466;2024-02-23T15:59:20;7.70;99.90
18974;DHT22;9621;48.690;9.466;2024-02-23T16:01:47;7.60;99.90
18974;DHT22;9621;48.690;9.466;2024-02-23T16:04:13;7.70;99.90